Time;durP1;ratioP1;P1;durP2;ratioP2;P2;SDS_P1;SDS_P2;PMS_P1;PMS_P2;Temp;Humidity;BMP_temperature;BMP_pressure;BME280_temperature;BME280_humidity;BME280_pressure;Samples;Min_cycle;Max_cycle;Signal;HPM_P1;HPM_P2
2022/04/07 00:02:20;;;;;;;2.20;2.10;;;9.80;99.90;;;;;;5224073;28;20183;-48
2022/04/07 00:04:50;;;;;;;3.33;2.00;;;9.70;99.90;;;;;;5228509;28;20487;-47
2022/04/07 00:07:21;;;;;;;10.83;2.67;;;9.60;99.90;;;;;;5227274;28;20199;-47
2022/04/07 00:09:51;;;;;;;8.23;2.97;;;9.60;99.90;;;;;;5221651;28;20171;-47
2022/04/07 00:12:22;;;;;;;2.97;1.80;;;9.60;99.90;;;;;;5229669;28;20583;-47
2022/04/07 00:14:52;;;;;;;2.50;2.00;;;9.60;99.90;;;;;;5226744;28;20183;-46
2022/04/07 00:17:23;;;;;;;5.70;2.60;;;9.60;99.90;;;;;;5221160;28;20308;-50
2022/04/07 00:19:54;;;;;;;3.73;2.20;;;9.60;99.90;;;;;;5226888;28;20190;-47
2022/04/07 00:22:25;;;;;;;2.13;2.00;;;9.70;99.90;;;;;;5222632;28;20238;-48
2022/04/07 00:24:55;;;;;;;7.30;2.60;;;9.70;99.90;;;;;;5222787;28;20454;-47
2022/04/07 00:27:26;;;;;;;5.40;2.20;;;9.60;99.90;;;;;;5225454;28;20198;-47
2022/04/07 00:29:57;;;;;;;3.77;2.27;;;9.60;99.90;;;;;;5221850;28;20620;-47
2022/04/07 00:32:27;;;;;;;3.20;2.03;;;9.70;99.90;;;;;;5226899;28;20182;-47
2022/04/07 00:34:58;;;;;;;4.40;2.60;;;9.70;99.90;;;;;;5227138;28;20460;-47
2022/04/07 00:37:29;;;;;;;4.57;2.60;;;9.70;99.90;;;;;;5223073;28;20274;-47
2022/04/07 00:39:59;;;;;;;6.47;2.70;;;9.60;99.90;;;;;;5232179;28;20187;-48
2022/04/07 00:42:30;;;;;;;4.33;2.20;;;9.50;99.90;;;;;;5222776;28;20183;-49
2022/04/07 00:45:01;;;;;;;4.67;1.83;;;9.50;99.90;;;;;;5224690;28;20199;-48
2022/04/07 00:47:32;;;;;;;2.83;2.07;;;9.40;99.90;;;;;;5222622;28;20202;-48
2022/04/07 00:50:03;;;;;;;2.33;2.13;;;9.40;99.90;;;;;;5223304;28;20265;-48
2022/04/07 00:52:35;;;;;;;3.50;2.03;;;9.40;99.90;;;;;;5222626;28;20524;-50
2022/04/07 00:55:06;;;;;;;3.03;2.30;;;9.30;99.90;;;;;;5219920;28;20433;-50
2022/04/07 00:57:41;;;;;;;4.70;2.53;;;9.30;99.90;;;;;;5222900;28;20995;-49
2022/04/07 01:00:13;;;;;;;3.47;2.20;;;9.30;99.90;;;;;;5223914;28;20501;-48
2022/04/07 01:02:44;;;;;;;2.33;2.23;;;9.30;99.90;;;;;;5224214;28;20500;-49
2022/04/07 01:05:14;;;;;;;3.57;2.03;;;9.30;99.90;;;;;;5235429;28;20461;-46
2022/04/07 01:07:46;;;;;;;2.70;2.50;;;9.20;99.90;;;;;;5224695;28;20202;-48
2022/04/07 01:10:19;;;;;;;4.23;2.20;;;9.10;99.90;;;;;;5224393;28;20175;-49
2022/04/07 01:12:49;;;;;;;1.73;1.73;;;9.10;99.90;;;;;;5222717;28;20460;-46
2022/04/07 01:15:20;;;;;;;2.50;1.57;;;9.00;99.90;;;;;;5230508;28;21179;-49
2022/04/07 01:17:51;;;;;;;6.70;1.70;;;9.00;99.90;;;;;;5225434;28;20186;-47
2022/04/07 01:20:22;;;;;;;2.73;2.40;;;9.00;99.90;;;;;;5239944;28;20445;-47
2022/04/07 01:22:53;;;;;;;4.70;2.00;;;9.10;99.90;;;;;;5228073;28;20175;-51
2022/04/07 01:25:26;;;;;;;2.57;2.37;;;9.10;99.90;;;;;;5227101;28;20213;-48
2022/04/07 01:27:56;;;;;;;2.03;1.90;;;9.20;99.90;;;;;;5234830;28;20441;-47
2022/04/07 01:30:27;;;;;;;3.93;2.60;;;9.30;99.90;;;;;;5225029;28;20438;-48
2022/04/07 01:32:59;;;;;;;2.80;2.30;;;9.40;99.90;;;;;;5224640;28;20262;-46
2022/04/07 01:35:30;;;;;;;4.77;2.13;;;9.40;99.90;;;;;;5219975;28;20180;-47
2022/04/07 01:38:01;;;;;;;2.30;2.20;;;9.60;99.90;;;;;;5224302;28;20452;-47
2022/04/07 01:40:35;;;;;;;3.53;2.03;;;9.50;99.90;;;;;;5224902;28;20543;-48
2022/04/07 01:43:08;;;;;;;2.40;2.20;;;9.50;99.90;;;;;;5228317;28;20585;-46
2022/04/07 01:45:40;;;;;;;2.40;2.20;;;9.40;99.90;;;;;;5212952;28;20523;-48
2022/04/07 01:48:11;;;;;;;2.60;2.40;;;9.30;99.90;;;;;;5240938;28;20437;-47
2022/04/07 01:50:44;;;;;;;4.87;3.13;;;9.20;99.90;;;;;;5217607;28;20423;-47
2022/04/07 01:53:15;;;;;;;5.50;2.40;;;9.10;99.90;;;;;;5228425;28;20529;-48
2022/04/07 01:55:47;;;;;;;3.17;2.90;;;9.10;99.90;;;;;;5241891;28;20555;-47
2022/04/07 01:58:18;;;;;;;4.43;2.70;;;9.10;99.90;;;;;;5223277;28;20841;-47
2022/04/07 02:00:49;;;;;;;2.73;2.53;;;9.10;99.90;;;;;;5221760;28;20474;-46
2022/04/07 02:03:19;;;;;;;2.70;2.50;;;9.20;99.90;;;;;;5216201;28;20186;-47
2022/04/07 02:05:49;;;;;;;2.80;2.40;;;9.20;99.90;;;;;;5229481;28;20221;-48
2022/04/07 02:08:20;;;;;;;2.70;2.50;;;9.30;99.90;;;;;;5225571;28;20249;-49
2022/04/07 02:10:51;;;;;;;2.70;2.33;;;9.30;99.90;;;;;;5229123;28;20547;-47
2022/04/07 02:13:21;;;;;;;3.50;3.30;;;9.30;99.90;;;;;;5226548;28;20186;-48
2022/04/07 02:15:52;;;;;;;3.03;2.93;;;9.30;99.90;;;;;;5229014;28;20294;-48
2022/04/07 02:18:23;;;;;;;6.90;3.10;;;9.30;99.90;;;;;;5215161;28;20521;-47
2022/04/07 02:20:53;;;;;;;3.47;2.93;;;9.40;99.90;;;;;;5224229;28;20175;-47
2022/04/07 02:23:24;;;;;;;4.87;3.47;;;9.30;99.90;;;;;;5219898;28;20254;-47
2022/04/07 02:25:54;;;;;;;3.40;3.10;;;9.40;99.90;;;;;;5225421;28;20219;-47
2022/04/07 02:28:25;;;;;;;3.93;3.40;;;9.40;99.90;;;;;;5226504;28;20187;-49
2022/04/07 02:30:55;;;;;;;3.90;3.60;;;9.30;99.90;;;;;;5216823;28;20210;-48
2022/04/07 02:33:26;;;;;;;9.13;3.60;;;9.20;99.90;;;;;;5225278;28;20186;-45
2022/04/07 02:35:57;;;;;;;6.10;4.10;;;9.10;99.90;;;;;;5222629;28;20704;-47
2022/04/07 02:38:27;;;;;;;10.87;4.37;;;9.00;99.90;;;;;;5222323;28;20187;-48
2022/04/07 02:40:58;;;;;;;5.53;3.20;;;9.10;99.90;;;;;;5224900;28;20236;-49
2022/04/07 02:43:28;;;;;;;4.07;3.67;;;9.00;99.90;;;;;;5222763;28;21485;-48
2022/04/07 02:45:59;;;;;;;8.90;3.80;;;9.20;99.90;;;;;;5220154;28;20210;-48
2022/04/07 02:48:29;;;;;;;3.57;3.27;;;9.10;99.90;;;;;;5222995;28;20651;-47
2022/04/07 02:51:01;;;;;;;3.93;3.63;;;9.00;99.90;;;;;;5221688;28;20210;-46
2022/04/07 02:53:31;;;;;;;4.37;3.80;;;8.80;99.90;;;;;;5225669;28;20198;-48
2022/04/07 02:56:02;;;;;;;5.27;4.30;;;8.70;99.90;;;;;;5205850;28;20504;-47
2022/04/07 02:58:33;;;;;;;3.83;3.63;;;8.80;99.90;;;;;;5219445;28;20207;-49
2022/04/07 03:01:03;;;;;;;5.90;3.50;;;8.70;99.90;;;;;;5222030;28;20175;-46
2022/04/07 03:03:34;;;;;;;4.80;3.90;;;8.70;99.90;;;;;;5222986;28;20708;-48
2022/04/07 03:06:04;;;;;;;9.60;4.00;;;8.60;99.90;;;;;;5222408;28;20214;-47
2022/04/07 03:08:35;;;;;;;4.80;4.30;;;8.60;99.90;;;;;;5237962;28;20179;-46
2022/04/07 03:11:08;;;;;;;4.30;3.97;;;8.50;99.90;;;;;;5226305;28;20587;-48
2022/04/07 03:13:39;;;;;;;8.60;4.67;;;8.60;99.90;;;;;;5241612;28;20522;-47
2022/04/07 03:16:09;;;;;;;5.53;4.27;;;8.50;99.90;;;;;;5224804;28;20977;-48
2022/04/07 03:18:40;;;;;;;6.67;4.00;;;8.60;99.90;;;;;;5242189;22;20480;-52
2022/04/07 03:21:11;;;;;;;14.33;4.80;;;8.60;99.90;;;;;;5220005;28;20210;-51
2022/04/07 03:23:41;;;;;;;6.27;4.10;;;8.60;99.90;;;;;;5225357;28;20221;-51
2022/04/07 03:26:12;;;;;;;7.33;4.60;;;8.60;99.90;;;;;;5210962;28;20213;-53
2022/04/07 03:28:42;;;;;;;7.33;4.10;;;8.60;99.90;;;;;;5217984;28;20289;-52
2022/04/07 03:31:13;;;;;;;5.37;4.87;;;8.60;99.90;;;;;;5215805;28;20198;-50
2022/04/07 03:33:44;;;;;;;4.20;3.80;;;8.50;99.90;;;;;;5218943;28;20182;-53
2022/04/07 03:36:15;;;;;;;3.90;3.60;;;8.50;99.90;;;;;;5224062;28;20229;-52
2022/04/07 03:38:45;;;;;;;5.03;4.60;;;8.50;99.90;;;;;;5208173;28;20524;-52
2022/04/07 03:41:17;;;;;;;4.50;4.10;;;8.60;99.90;;;;;;5227381;28;20193;-52
2022/04/07 03:43:48;;;;;;;7.27;4.70;;;8.60;99.90;;;;;;5208793;28;20191;-51
2022/04/07 03:46:21;;;;;;;5.30;4.10;;;8.60;99.90;;;;;;5222561;28;20465;-52
2022/04/07 03:48:52;;;;;;;9.13;5.20;;;8.50;99.90;;;;;;5214747;28;20464;-50
2022/04/07 03:51:22;;;;;;;6.83;3.67;;;8.50;99.90;;;;;;5218697;28;20913;-52
2022/04/07 03:53:53;;;;;;;5.50;3.97;;;8.50;99.90;;;;;;5219686;28;20182;-50
2022/04/07 03:56:23;;;;;;;6.00;4.27;;;8.50;99.90;;;;;;5217702;28;20199;-52
2022/04/07 03:58:55;;;;;;;4.97;4.03;;;8.40;99.90;;;;;;5205886;28;20207;-53
2022/04/07 04:01:27;;;;;;;7.30;4.30;;;8.50;99.90;;;;;;5203865;28;20179;-51
2022/04/07 04:03:57;;;;;;;4.57;4.17;;;8.50;99.90;;;;;;5200699;28;20441;-50
2022/04/07 04:06:28;;;;;;;6.30;4.30;;;8.50;99.90;;;;;;5219912;28;20468;-52
2022/04/07 04:08:58;;;;;;;4.83;4.07;;;8.60;99.90;;;;;;5187441;28;20192;-52
2022/04/07 04:11:29;;;;;;;7.03;4.33;;;8.60;99.90;;;;;;5222344;28;20184;-52
2022/04/07 04:14:01;;;;;;;8.60;4.07;;;8.60;99.90;;;;;;5218552;28;20190;-52
2022/04/07 04:16:32;;;;;;;4.90;3.97;;;8.70;99.90;;;;;;5217647;28;20203;-52
2022/04/07 04:19:02;;;;;;;7.57;3.70;;;8.80;99.90;;;;;;5211239;28;20516;-52
2022/04/07 04:21:33;;;;;;;7.03;3.83;;;8.90;99.90;;;;;;5218314;28;20594;-51
2022/04/07 04:24:04;;;;;;;3.73;3.53;;;8.90;99.90;;;;;;5204177;28;20179;-52
2022/04/07 04:26:34;;;;;;;6.57;4.10;;;8.90;99.90;;;;;;5211196;28;20286;-52
2022/04/07 04:29:05;;;;;;;4.97;4.47;;;8.90;99.90;;;;;;5229043;28;20452;-51
2022/04/07 04:31:35;;;;;;;6.07;4.13;;;9.00;99.90;;;;;;5219884;28;20639;-52
2022/04/07 04:34:06;;;;;;;13.93;9.80;;;9.00;99.90;;;;;;5223855;28;20272;-52
2022/04/07 04:36:36;;;;;;;5.27;4.47;;;9.20;99.90;;;;;;5218204;28;20190;-51
2022/04/07 04:39:07;;;;;;;9.40;4.60;;;9.30;99.90;;;;;;5203745;28;20204;-52
2022/04/07 04:41:37;;;;;;;5.67;4.27;;;9.30;99.90;;;;;;5224708;28;20186;-52
2022/04/07 04:44:08;;;;;;;3.93;3.50;;;9.40;99.90;;;;;;5221706;28;20241;-51
2022/04/07 04:46:38;;;;;;;9.93;3.90;;;9.30;99.90;;;;;;5220388;28;20215;-52
2022/04/07 04:49:09;;;;;;;5.23;4.00;;;9.30;99.90;;;;;;5223336;28;20198;-51
2022/04/07 04:51:39;;;;;;;3.23;3.13;;;9.30;99.90;;;;;;5208999;28;20570;-51
2022/04/07 04:54:13;;;;;;;4.10;3.70;;;9.40;99.90;;;;;;5220591;28;20204;-52
2022/04/07 04:56:43;;;;;;;4.57;4.17;;;9.40;99.90;;;;;;5224169;28;20201;-51
2022/04/07 04:59:14;;;;;;;5.33;4.00;;;9.40;99.90;;;;;;5225322;28;20457;-51
2022/04/07 05:01:45;;;;;;;3.97;3.67;;;9.50;99.90;;;;;;5216542;28;20202;-52
2022/04/07 05:04:15;;;;;;;3.60;3.30;;;9.50;99.90;;;;;;5205889;28;20185;-52
2022/04/07 05:06:46;;;;;;;3.07;2.80;;;9.60;99.90;;;;;;5203365;28;20268;-51
2022/04/07 05:09:16;;;;;;;3.50;3.13;;;9.60;99.90;;;;;;5221524;28;21185;-51
2022/04/07 05:11:47;;;;;;;3.97;3.00;;;9.70;99.90;;;;;;5223610;28;20175;-52
2022/04/07 05:14:17;;;;;;;4.30;3.70;;;9.70;99.90;;;;;;5214175;28;20183;-53
2022/04/07 05:16:48;;;;;;;7.63;3.30;;;9.80;99.90;;;;;;5221887;28;20665;-54
2022/04/07 05:19:18;;;;;;;5.50;4.10;;;9.90;99.90;;;;;;5221875;28;20281;-51
2022/04/07 05:21:50;;;;;;;3.07;2.87;;;9.90;99.90;;;;;;5223969;28;20175;-52
2022/04/07 05:24:20;;;;;;;11.43;3.67;;;10.00;99.90;;;;;;5225792;28;20172;-52
2022/04/07 05:26:51;;;;;;;7.00;4.07;;;10.00;99.90;;;;;;5221205;28;20510;-52
2022/04/07 05:29:21;;;;;;;7.80;3.53;;;10.00;99.90;;;;;;5218394;28;20230;-52
2022/04/07 05:31:52;;;;;;;5.30;3.33;;;10.10;99.90;;;;;;5218326;28;20551;-53
2022/04/07 05:34:22;;;;;;;3.30;3.10;;;10.20;99.90;;;;;;5217395;28;20552;-50
2022/04/07 05:36:53;;;;;;;3.20;2.90;;;10.20;99.90;;;;;;5216811;28;20189;-52
2022/04/07 05:39:24;;;;;;;3.00;2.90;;;10.10;99.90;;;;;;5218960;28;20205;-52
2022/04/07 05:41:54;;;;;;;3.87;2.70;;;10.20;99.90;;;;;;5221932;28;20187;-52
2022/04/07 05:44:25;;;;;;;4.40;3.33;;;10.30;99.90;;;;;;5222966;28;20211;-53
2022/04/07 05:46:55;;;;;;;5.27;3.07;;;10.40;99.90;;;;;;5204359;28;20479;-51
2022/04/07 05:49:26;;;;;;;3.30;3.03;;;10.30;99.90;;;;;;5217435;28;20199;-52
2022/04/07 05:52:00;;;;;;;2.53;2.10;;;10.30;99.90;;;;;;5220638;28;20221;-52
2022/04/07 05:54:31;;;;;;;2.53;2.33;;;10.40;99.90;;;;;;5202677;28;20381;-53
2022/04/07 05:57:02;;;;;;;2.90;2.60;;;10.40;99.90;;;;;;5207522;28;20529;-51
2022/04/07 05:59:33;;;;;;;3.33;2.90;;;10.30;99.90;;;;;;5220125;28;20523;-53
2022/04/07 06:02:04;;;;;;;3.63;2.57;;;10.40;99.90;;;;;;5203817;28;20426;-52
2022/04/07 06:04:38;;;;;;;4.37;3.13;;;10.60;99.90;;;;;;5185537;28;20195;-54
2022/04/07 06:07:09;;;;;;;3.97;2.67;;;10.80;99.90;;;;;;5217211;28;20206;-53
2022/04/07 06:09:40;;;;;;;6.83;2.67;;;11.10;99.90;;;;;;5202343;28;20523;-52
2022/04/07 06:12:11;;;;;;;3.93;2.07;;;11.40;99.90;;;;;;5220939;28;20175;-52
2022/04/07 06:14:41;;;;;;;3.97;2.60;;;11.50;99.90;;;;;;5227749;28;20417;-52
2022/04/07 06:17:12;;;;;;;2.37;2.17;;;11.60;99.90;;;;;;5216665;28;20194;-53
2022/04/07 06:19:42;;;;;;;5.07;2.60;;;11.90;99.90;;;;;;5208470;28;20226;-52
2022/04/07 06:22:13;;;;;;;2.13;1.93;;;12.00;99.90;;;;;;5202147;28;20223;-51
2022/04/07 06:24:43;;;;;;;2.50;2.30;;;12.00;99.90;;;;;;5221763;28;20223;-52
2022/04/07 06:27:14;;;;;;;4.93;3.80;;;12.10;99.90;;;;;;5205532;28;20179;-52
2022/04/07 06:29:44;;;;;;;1.80;1.70;;;12.10;99.90;;;;;;5222873;28;20226;-53
2022/04/07 06:32:15;;;;;;;4.10;2.73;;;12.10;99.90;;;;;;5216104;28;20539;-53
2022/04/07 06:34:45;;;;;;;1.40;1.40;;;12.00;99.90;;;;;;5217743;28;20690;-51
2022/04/07 06:37:16;;;;;;;2.50;2.33;;;11.90;99.90;;;;;;5199262;28;20274;-53
2022/04/07 06:39:46;;;;;;;2.53;2.33;;;11.90;99.90;;;;;;5216280;28;20203;-52
2022/04/07 06:42:17;;;;;;;2.97;2.67;;;11.90;99.90;;;;;;5219061;28;20286;-53
2022/04/07 06:44:47;;;;;;;6.03;2.20;;;11.90;99.90;;;;;;5201758;28;20203;-52
2022/04/07 06:47:18;;;;;;;8.47;4.40;;;11.80;99.90;;;;;;5216677;28;20641;-53
2022/04/07 06:49:52;;;;;;;6.50;2.60;;;11.80;99.90;;;;;;5202765;28;20628;-53
2022/04/07 06:52:22;;;;;;;3.23;2.43;;;11.80;99.90;;;;;;5192251;28;20179;-51
2022/04/07 06:54:53;;;;;;;10.07;5.13;;;11.70;99.90;;;;;;5202121;28;20980;-52
2022/04/07 06:57:23;;;;;;;2.90;2.67;;;11.60;99.90;;;;;;5197497;28;20240;-52
2022/04/07 06:59:54;;;;;;;4.90;2.40;;;11.60;99.90;;;;;;5217064;28;20301;-52
2022/04/07 07:02:24;;;;;;;2.93;2.70;;;11.70;99.90;;;;;;5212196;28;20210;-52
2022/04/07 07:04:55;;;;;;;2.37;2.17;;;12.00;99.90;;;;;;5223515;28;20206;-53
2022/04/07 07:07:25;;;;;;;2.23;2.13;;;12.30;99.90;;;;;;5212529;28;20539;-53
2022/04/07 07:09:56;;;;;;;2.77;2.57;;;12.50;99.90;;;;;;5218366;28;20210;-52
2022/04/07 07:12:26;;;;;;;3.07;2.77;;;12.60;99.90;;;;;;5200124;28;20217;-52
2022/04/07 07:14:57;;;;;;;2.20;2.10;;;12.90;99.90;;;;;;5218785;28;20205;-52
2022/04/07 07:17:33;;;;;;;3.40;2.60;;;13.30;99.90;;;;;;5219598;28;20190;-53
2022/04/07 07:20:07;;;;;;;4.40;2.30;;;13.50;99.90;;;;;;5223310;28;20313;-53
2022/04/07 07:22:39;;;;;;;2.93;2.73;;;13.90;99.90;;;;;;5205661;28;20445;-52
2022/04/07 07:25:12;;;;;;;3.63;2.50;;;15.40;97.90;;;;;;5220823;28;20469;-53
2022/04/07 07:27:44;;;;;;;2.67;2.47;;;17.40;77.40;;;;;;5215575;28;20571;-53
2022/04/07 07:30:17;;;;;;;3.10;1.90;;;19.20;61.50;;;;;;5217508;28;20598;-53
2022/04/07 07:32:48;;;;;;;3.53;2.20;;;20.50;53.00;;;;;;5207973;28;20434;-52
2022/04/07 07:35:20;;;;;;;2.03;1.77;;;21.10;49.00;;;;;;5220474;28;20925;-53
2022/04/07 07:38:04;;;;;;;2.87;1.90;;;21.50;46.40;;;;;;5207569;28;20468;-52
2022/04/07 07:40:34;;;;;;;3.80;1.77;;;21.90;45.50;;;;;;5221996;28;20620;-53
2022/04/07 07:43:05;;;;;;;21.80;2.97;;;21.80;45.10;;;;;;5225546;28;20902;-53
2022/04/07 07:45:35;;;;;;;4.03;1.67;;;22.00;43.60;;;;;;5208781;28;20211;-52
2022/04/07 07:48:06;;;;;;;4.03;1.80;;;21.60;43.90;;;;;;5217574;28;20547;-54
2022/04/07 07:50:45;;;;;;;1.50;1.40;;;20.30;45.00;;;;;;5220476;28;20214;-52
2022/04/07 07:53:17;;;;;;;4.80;1.80;;;18.80;47.30;;;;;;5205668;28;20329;-53
2022/04/07 07:55:48;;;;;;;5.17;1.80;;;17.70;49.80;;;;;;5216463;28;20464;-52
2022/04/07 07:58:18;;;;;;;1.47;1.47;;;17.10;51.70;;;;;;5204725;28;20499;-53
2022/04/07 08:00:49;;;;;;;1.63;1.30;;;17.30;53.70;;;;;;5223810;28;20464;-53
2022/04/07 08:03:19;;;;;;;2.43;2.20;;;18.40;51.20;;;;;;5223479;28;20210;-53
2022/04/07 08:05:50;;;;;;;2.43;2.23;;;18.80;49.20;;;;;;5224832;28;20246;-52
2022/04/07 08:08:20;;;;;;;1.83;1.63;;;18.50;48.40;;;;;;5223961;28;20183;-54
2022/04/07 08:10:51;;;;;;;1.63;1.37;;;18.60;49.30;;;;;;5214310;28;20548;-54
2022/04/07 08:13:22;;;;;;;2.23;1.70;;;19.30;48.30;;;;;;5219236;28;20194;-54
2022/04/07 08:15:52;;;;;;;5.30;0.97;;;19.70;47.30;;;;;;5192933;28;20716;-53
2022/04/07 08:18:23;;;;;;;1.10;1.10;;;19.60;46.90;;;;;;5221276;28;20214;-52
2022/04/07 08:20:53;;;;;;;1.20;1.20;;;19.00;47.60;;;;;;5220275;28;20821;-52
2022/04/07 08:23:24;;;;;;;3.73;1.60;;;18.40;49.70;;;;;;5222555;28;20578;-54
2022/04/07 08:25:54;;;;;;;1.93;1.77;;;18.90;49.50;;;;;;5209242;28;20512;-52
2022/04/07 08:28:25;;;;;;;10.90;1.50;;;19.00;48.90;;;;;;5217958;28;20198;-54
2022/04/07 08:30:56;;;;;;;4.20;1.50;;;18.70;49.30;;;;;;5206471;28;20226;-51
2022/04/07 08:33:26;;;;;;;0.97;0.97;;;18.40;49.40;;;;;;5223663;28;20531;-54
2022/04/07 08:35:57;;;;;;;1.00;1.00;;;18.60;50.30;;;;;;5220649;28;20570;-53
2022/04/07 08:38:27;;;;;;;4.93;1.43;;;18.50;50.10;;;;;;5220795;28;20264;-53
2022/04/07 08:40:59;;;;;;;1.57;1.47;;;18.30;50.60;;;;;;5222338;28;20194;-53
2022/04/07 08:43:30;;;;;;;1.57;1.30;;;18.20;50.20;;;;;;5221465;28;20183;-53
2022/04/07 08:46:02;;;;;;;1.47;1.37;;;18.20;50.10;;;;;;5209310;28;20469;-51
2022/04/07 08:48:36;;;;;;;1.40;1.40;;;18.10;49.70;;;;;;5218796;28;20547;-53
2022/04/07 08:51:07;;;;;;;1.43;1.33;;;18.20;50.20;;;;;;5224573;28;20506;-52
2022/04/07 08:53:38;;;;;;;0.87;0.87;;;18.00;50.20;;;;;;5217374;28;20838;-53
2022/04/07 08:56:11;;;;;;;1.53;1.50;;;17.70;50.60;;;;;;5211421;28;20321;-53
2022/04/07 08:58:41;;;;;;;1.13;1.13;;;17.30;50.70;;;;;;5203560;28;20457;-55
2022/04/07 09:01:11;;;;;;;0.70;0.70;;;16.80;51.60;;;;;;5222290;28;20441;-53
2022/04/07 09:03:43;;;;;;;1.23;1.23;;;16.40;52.70;;;;;;5224904;28;20236;-52
2022/04/07 09:06:18;;;;;;;1.17;0.90;;;16.30;53.40;;;;;;5203645;28;20269;-53
2022/04/07 09:08:49;;;;;;;0.80;0.80;;;16.20;53.90;;;;;;5211107;28;20590;-53
2022/04/07 09:11:21;;;;;;;1.10;1.00;;;16.00;54.10;;;;;;5214347;28;20521;-53
2022/04/07 09:13:52;;;;;;;1.07;0.97;;;15.90;54.70;;;;;;5216329;28;20183;-53
2022/04/07 09:16:23;;;;;;;0.60;0.60;;;15.80;55.10;;;;;;5203838;28;20442;-53
2022/04/07 09:18:54;;;;;;;1.20;0.87;;;15.80;55.70;;;;;;5216430;23;20469;-49
2022/04/07 09:21:31;;;;;;;1.30;0.83;;;15.70;56.00;;;;;;5201845;28;20214;-49
2022/04/07 09:24:07;;;;;;;0.63;0.63;;;15.90;56.00;;;;;;5217914;28;20193;-48
2022/04/07 09:26:39;;;;;;;2.00;0.70;;;16.40;55.50;;;;;;5200633;28;20550;-49
2022/04/07 09:29:11;;;;;;;0.93;0.80;;;16.70;54.80;;;;;;5221324;28;20618;-50
2022/04/07 09:31:53;;;;;;;0.80;0.80;;;16.70;53.90;;;;;;5217790;28;20502;-48
2022/04/07 09:34:33;;;;;;;0.50;0.50;;;16.50;54.50;;;;;;5225840;28;20437;-49
2022/04/07 09:37:05;;;;;;;1.20;1.10;;;16.80;54.40;;;;;;5217466;28;20426;-49
2022/04/07 09:39:40;;;;;;;1.00;1.00;;;16.80;54.50;;;;;;5215086;28;20465;-50
2022/04/07 09:42:25;;;;;;;0.60;0.60;;;16.50;54.80;;;;;;5224138;28;20520;-48
2022/04/07 09:44:59;;;;;;;0.97;0.97;;;16.30;55.50;;;;;;5208978;28;20550;-48
2022/04/07 09:47:37;;;;;;;0.70;0.70;;;16.20;55.50;;;;;;5221208;28;20442;-49
2022/04/07 09:50:22;;;;;;;1.00;1.00;;;16.10;55.80;;;;;;5181122;28;20456;-51
2022/04/07 09:52:57;;;;;;;1.27;1.00;;;16.10;55.50;;;;;;5215100;28;20435;-48
2022/04/07 09:55:41;;;;;;;12.13;4.97;;;16.00;55.50;;;;;;5203055;28;20443;-47
2022/04/07 09:58:14;;;;;;;0.90;0.90;;;15.80;55.30;;;;;;5205822;28;20437;-49
2022/04/07 10:00:45;;;;;;;3.03;0.83;;;15.70;55.60;;;;;;5220245;28;20514;-48
2022/04/07 10:03:16;;;;;;;0.70;0.70;;;15.50;56.10;;;;;;5205561;28;20449;-49
2022/04/07 10:05:48;;;;;;;0.80;0.80;;;15.60;56.00;;;;;;5216147;28;20272;-48
2022/04/07 10:08:19;;;;;;;1.23;0.90;;;15.70;55.50;;;;;;5226538;28;20176;-49
2022/04/07 10:10:50;;;;;;;1.07;0.97;;;15.60;56.20;;;;;;5226191;28;20563;-50
2022/04/07 10:13:20;;;;;;;0.80;0.80;;;15.50;57.00;;;;;;5218551;28;20917;-50
2022/04/07 10:15:51;;;;;;;0.60;0.60;;;15.30;56.70;;;;;;5206241;28;20431;-50
2022/04/07 10:18:31;;;;;;;0.77;0.77;;;15.10;57.00;;;;;;5221109;28;20188;-49
2022/04/07 10:21:03;;;;;;;1.80;1.70;;;15.10;57.40;;;;;;5230025;28;20222;-47
2022/04/07 10:23:37;;;;;;;3.47;1.00;;;15.60;57.20;;;;;;5217782;28;20510;-49
2022/04/07 10:26:10;;;;;;;1.20;0.63;;;16.00;56.80;;;;;;5218737;28;20469;-47
2022/04/07 10:28:41;;;;;;;2.23;2.13;;;16.20;55.40;;;;;;5208352;28;20439;-47
2022/04/07 10:31:14;;;;;;;1.90;0.80;;;16.20;55.40;;;;;;5216888;28;20430;-50
2022/04/07 10:33:48;;;;;;;2.70;1.47;;;16.00;55.70;;;;;;5220468;28;20176;-50
2022/04/07 10:36:21;;;;;;;1.27;0.90;;;15.70;56.00;;;;;;5228242;28;20525;-48
2022/04/07 10:38:53;;;;;;;2.40;0.97;;;15.60;57.10;;;;;;5222321;28;20797;-50
2022/04/07 10:41:38;;;;;;;1.63;1.33;;;15.50;57.90;;;;;;5220847;28;20940;-49
2022/04/07 10:44:20;;;;;;;1.43;1.07;;;15.50;57.70;;;;;;5207928;28;20464;-51
2022/04/07 10:47:02;;;;;;;0.87;0.60;;;15.30;57.50;;;;;;5214790;28;20477;-50
2022/04/07 10:49:33;;;;;;;4.73;1.23;;;15.10;60.60;;;;;;5218554;28;20461;-50
2022/04/07 10:52:05;;;;;;;1.97;0.97;;;14.80;63.20;;;;;;5200030;28;20828;-49
2022/04/07 10:55:11;;;;;;;1.43;1.03;;;14.80;66.20;;;;;;5186332;28;20437;-51
2022/04/07 10:58:10;;;;;;;1.10;1.10;;;14.60;69.60;;;;;;5223437;28;20516;-49
2022/04/07 11:00:41;;;;;;;1.13;0.70;;;14.40;74.60;;;;;;5198998;28;20449;-49
2022/04/07 11:03:14;;;;;;;0.53;0.53;;;14.30;79.50;;;;;;5213228;28;20463;-49
2022/04/07 11:05:52;;;;;;;0.93;0.93;;;14.30;89.20;;;;;;5220475;28;20203;-51
2022/04/07 11:08:23;;;;;;;2.53;1.30;;;14.30;90.70;;;;;;5198888;28;20445;-49
2022/04/07 11:10:55;;;;;;;0.70;0.70;;;14.20;91.20;;;;;;5224895;28;20453;-50
2022/04/07 11:13:50;;;;;;;2.00;1.00;;;14.20;92.80;;;;;;5215077;28;20178;-50
2022/04/07 11:16:30;;;;;;;3.73;2.30;;;13.90;94.50;;;;;;5211727;28;20521;-49
2022/04/07 11:19:21;;;;;;;3.10;1.10;;;13.90;96.00;;;;;;5212983;28;20449;-50
2022/04/07 11:21:52;;;;;;;1.43;1.33;;;13.90;96.00;;;;;;5198002;28;20446;-48
2022/04/07 11:24:24;;;;;;;2.20;1.33;;;13.80;96.70;;;;;;5221776;28;20441;-50
2022/04/07 11:26:56;;;;;;;3.27;1.17;;;13.80;96.50;;;;;;5217186;28;20466;-48
2022/04/07 11:29:34;;;;;;;1.10;0.93;;;13.90;96.20;;;;;;5222005;28;20488;-50
2022/04/07 11:32:09;;;;;;;0.60;0.60;;;13.90;95.80;;;;;;5219818;28;20499;-49
2022/04/07 11:34:40;;;;;;;1.50;1.20;;;14.00;94.60;;;;;;5217038;28;20805;-49
2022/04/07 11:37:14;;;;;;;0.60;0.50;;;14.00;93.80;;;;;;5226243;28;20432;-52
2022/04/07 11:39:50;;;;;;;2.00;1.00;;;14.10;92.90;;;;;;5205782;28;20779;-51
2022/04/07 11:42:22;;;;;;;0.70;0.70;;;14.00;92.90;;;;;;5207776;28;20945;-51
2022/04/07 11:44:59;;;;;;;1.07;1.07;;;14.10;92.80;;;;;;5224743;28;20484;-51
2022/04/07 11:47:33;;;;;;;0.83;0.83;;;14.20;91.50;;;;;;5207606;28;20429;-49
2022/04/07 11:50:05;;;;;;;4.60;2.33;;;14.10;92.00;;;;;;5205968;28;20491;-52
2022/04/07 11:52:36;;;;;;;2.77;0.70;;;14.20;91.30;;;;;;5222145;28;20532;-49
2022/04/07 11:55:07;;;;;;;0.97;0.97;;;14.30;92.80;;;;;;5218099;28;20521;-49
2022/04/07 11:57:37;;;;;;;1.13;1.03;;;14.20;94.20;;;;;;5221752;28;20196;-48
2022/04/07 12:00:10;;;;;;;0.87;0.83;;;14.10;96.40;;;;;;5225463;28;20253;-49
2022/04/07 12:02:40;;;;;;;1.50;0.97;;;14.10;98.90;;;;;;5207230;28;20270;-51
2022/04/07 12:05:14;;;;;;;0.50;0.50;;;13.90;99.10;;;;;;5222713;28;20545;-49
2022/04/07 12:07:44;;;;;;;0.60;0.60;;;13.80;99.90;;;;;;5205853;28;20193;-51
2022/04/07 12:10:15;;;;;;;0.60;0.60;;;13.70;99.90;;;;;;5225379;28;20461;-50
2022/04/07 12:12:48;;;;;;;1.13;1.00;;;13.60;99.90;;;;;;5228052;28;20182;-51
2022/04/07 12:15:18;;;;;;;1.37;1.33;;;13.50;99.90;;;;;;5206797;28;20718;-52
2022/04/07 12:18:09;;;;;;;1.20;1.20;;;13.30;99.90;;;;;;5203337;28;20516;-50
2022/04/07 12:20:39;;;;;;;2.07;0.93;;;13.10;99.90;;;;;;5223570;28;20213;-52
2022/04/07 12:23:14;;;;;;;3.97;1.00;;;12.90;99.90;;;;;;5220885;28;20445;-50
2022/04/07 12:25:44;;;;;;;1.03;0.77;;;12.80;99.90;;;;;;5219164;28;20209;-47
2022/04/07 12:28:16;;;;;;;0.60;0.60;;;12.80;99.90;;;;;;5223601;28;20437;-50
2022/04/07 12:30:50;;;;;;;0.60;0.60;;;12.80;99.90;;;;;;5203914;28;20203;-52
2022/04/07 12:33:43;;;;;;;1.67;0.80;;;12.70;99.90;;;;;;5202503;28;20948;-49
2022/04/07 12:36:36;;;;;;;0.60;0.60;;;12.80;99.90;;;;;;5204165;28;20448;-50
2022/04/07 12:39:15;;;;;;;12.57;1.47;;;12.70;99.90;;;;;;5217464;28;20459;-47
2022/04/07 12:41:49;;;;;;;1.03;0.63;;;12.70;99.90;;;;;;5190403;28;20441;-49
2022/04/07 12:44:38;;;;;;;0.70;0.70;;;12.70;99.90;;;;;;5216847;28;21006;-48
2022/04/07 12:47:14;;;;;;;0.70;0.57;;;12.70;99.90;;;;;;5218823;28;21579;-51
2022/04/07 12:49:55;;;;;;;1.80;0.67;;;12.70;99.90;;;;;;5218718;28;20489;-49
2022/04/07 12:52:41;;;;;;;3.40;1.43;;;12.80;99.90;;;;;;5206029;28;20434;-50
2022/04/07 12:55:15;;;;;;;0.60;0.60;;;12.70;99.90;;;;;;5215626;28;21012;-51
2022/04/07 12:57:46;;;;;;;1.17;1.03;;;12.60;99.90;;;;;;5222909;28;20433;-52
2022/04/07 13:00:19;;;;;;;1.00;0.83;;;12.60;99.90;;;;;;5202792;28;20471;-50
2022/04/07 13:02:55;;;;;;;1.90;0.67;;;12.60;99.90;;;;;;5208882;28;20191;-49
2022/04/07 13:05:30;;;;;;;1.43;0.83;;;12.60;99.90;;;;;;5223098;28;20467;-51
2022/04/07 13:08:03;;;;;;;1.50;0.90;;;12.70;99.90;;;;;;5205406;28;20536;-53
2022/04/07 13:10:34;;;;;;;3.33;1.10;;;13.00;99.90;;;;;;5222152;28;20465;-50
2022/04/07 13:13:04;;;;;;;4.10;1.00;;;13.30;99.90;;;;;;5219517;28;21013;-52
2022/04/07 13:15:35;;;;;;;1.43;1.00;;;13.50;99.90;;;;;;5221886;28;20716;-50
2022/04/07 13:18:06;;;;;;;2.60;1.27;;;13.60;99.90;;;;;;5221692;28;20218;-49